sensor_id;sensor_type;location;lat;lon;timestamp;P1;durP1;ratioP1;P2;durP2;ratioP2
15289;SDS011;7746;50.554;7.108;2023-02-28T00:00:37;0.93;;;0.90;;
15289;SDS011;7746;50.554;7.108;2023-02-28T00:03:05;1.20;;;1.10;;
15289;SDS011;7746;50.554;7.108;2023-02-28T00:05:33;1.17;;;1.07;;
15289;SDS011;7746;50.554;7.108;2023-02-28T00:08:00;0.80;;;0.80;;
15289;SDS011;7746;50.554;7.108;2023-02-28T00:10:28;0.87;;;0.87;;
15289;SDS011;7746;50.554;7.108;2023-02-28T00:12:56;0.70;;;0.70;;
15289;SDS011;7746;50.554;7.108;2023-02-28T00:15:23;0.80;;;0.80;;
15289;SDS011;7746;50.554;7.108;2023-02-28T00:17:50;0.90;;;0.90;;
15289;SDS011;7746;50.554;7.108;2023-02-28T00:20:19;0.70;;;0.70;;
15289;SDS011;7746;50.554;7.108;2023-02-28T00:22:47;0.83;;;0.83;;
15289;SDS011;7746;50.554;7.108;2023-02-28T00:25:15;1.00;;;1.00;;
15289;SDS011;7746;50.554;7.108;2023-02-28T00:27:43;0.80;;;0.80;;
15289;SDS011;7746;50.554;7.108;2023-02-28T00:30:10;0.83;;;0.83;;
15289;SDS011;7746;50.554;7.108;2023-02-28T00:32:38;1.07;;;0.97;;
15289;SDS011;7746;50.554;7.108;2023-02-28T00:35:05;0.70;;;0.70;;
15289;SDS011;7746;50.554;7.108;2023-02-28T00:37:34;0.97;;;0.90;;
15289;SDS011;7746;50.554;7.108;2023-02-28T00:40:02;0.80;;;0.80;;
15289;SDS011;7746;50.554;7.108;2023-02-28T00:42:31;1.17;;;0.97;;
15289;SDS011;7746;50.554;7.108;2023-02-28T00:44:58;1.20;;;0.93;;
15289;SDS011;7746;50.554;7.108;2023-02-28T00:47:25;0.97;;;0.87;;
15289;SDS011;7746;50.554;7.108;2023-02-28T00:49:53;0.70;;;0.70;;
15289;SDS011;7746;50.554;7.108;2023-02-28T00:52:20;0.90;;;0.80;;
15289;SDS011;7746;50.554;7.108;2023-02-28T00:54:48;0.80;;;0.80;;
15289;SDS011;7746;50.554;7.108;2023-02-28T00:57:15;0.90;;;0.90;;
15289;SDS011;7746;50.554;7.108;2023-02-28T00:59:42;0.90;;;0.90;;
15289;SDS011;7746;50.554;7.108;2023-02-28T01:02:09;0.77;;;0.77;;
15289;SDS011;7746;50.554;7.108;2023-02-28T01:04:36;0.73;;;0.70;;
15289;SDS011;7746;50.554;7.108;2023-02-28T01:07:04;0.70;;;0.70;;
15289;SDS011;7746;50.554;7.108;2023-02-28T01:09:31;0.87;;;0.87;;
15289;SDS011;7746;50.554;7.108;2023-02-28T01:11:59;0.80;;;0.80;;
15289;SDS011;7746;50.554;7.108;2023-02-28T01:14:26;0.90;;;0.90;;
15289;SDS011;7746;50.554;7.108;2023-02-28T01:16:53;1.10;;;0.97;;
15289;SDS011;7746;50.554;7.108;2023-02-28T01:19:20;0.97;;;0.90;;
15289;SDS011;7746;50.554;7.108;2023-02-28T01:21:47;1.10;;;1.00;;
15289;SDS011;7746;50.554;7.108;2023-02-28T01:24:14;0.70;;;0.70;;
15289;SDS011;7746;50.554;7.108;2023-02-28T01:26:41;1.53;;;0.90;;
15289;SDS011;7746;50.554;7.108;2023-02-28T01:29:10;0.80;;;0.80;;
15289;SDS011;7746;50.554;7.108;2023-02-28T01:31:37;1.00;;;0.87;;
15289;SDS011;7746;50.554;7.108;2023-02-28T01:34:04;0.87;;;0.87;;
15289;SDS011;7746;50.554;7.108;2023-02-28T01:36:31;0.87;;;0.87;;
15289;SDS011;7746;50.554;7.108;2023-02-28T01:38:58;1.00;;;0.90;;
15289;SDS011;7746;50.554;7.108;2023-02-28T01:41:26;1.10;;;0.90;;
15289;SDS011;7746;50.554;7.108;2023-02-28T01:43:58;0.87;;;0.77;;
15289;SDS011;7746;50.554;7.108;2023-02-28T01:46:29;1.10;;;0.90;;
15289;SDS011;7746;50.554;7.108;2023-02-28T01:48:58;0.60;;;0.60;;
15289;SDS011;7746;50.554;7.108;2023-02-28T01:51:28;0.90;;;0.90;;
15289;SDS011;7746;50.554;7.108;2023-02-28T01:53:58;0.90;;;0.90;;
15289;SDS011;7746;50.554;7.108;2023-02-28T01:56:27;1.07;;;1.00;;
15289;SDS011;7746;50.554;7.108;2023-02-28T01:58:55;0.90;;;0.90;;
15289;SDS011;7746;50.554;7.108;2023-02-28T02:01:23;0.80;;;0.80;;
15289;SDS011;7746;50.554;7.108;2023-02-28T02:03:52;1.00;;;0.90;;
15289;SDS011;7746;50.554;7.108;2023-02-28T02:06:21;1.17;;;0.97;;
15289;SDS011;7746;50.554;7.108;2023-02-28T02:08:48;0.93;;;0.87;;
15289;SDS011;7746;50.554;7.108;2023-02-28T02:11:17;0.80;;;0.80;;
15289;SDS011;7746;50.554;7.108;2023-02-28T02:13:54;0.80;;;0.80;;
15289;SDS011;7746;50.554;7.108;2023-02-28T02:16:27;0.60;;;0.60;;
15289;SDS011;7746;50.554;7.108;2023-02-28T02:19:02;0.93;;;0.90;;
15289;SDS011;7746;50.554;7.108;2023-02-28T02:21:45;0.80;;;0.80;;
15289;SDS011;7746;50.554;7.108;2023-02-28T02:27:05;0.60;;;0.60;;
15289;SDS011;7746;50.554;7.108;2023-02-28T02:29:45;1.97;;;1.23;;
15289;SDS011;7746;50.554;7.108;2023-02-28T02:32:25;1.00;;;0.90;;
15289;SDS011;7746;50.554;7.108;2023-02-28T02:34:58;0.97;;;0.90;;
15289;SDS011;7746;50.554;7.108;2023-02-28T02:37:34;0.80;;;0.80;;
15289;SDS011;7746;50.554;7.108;2023-02-28T02:40:07;0.90;;;0.90;;
15289;SDS011;7746;50.554;7.108;2023-02-28T02:42:38;0.90;;;0.90;;
15289;SDS011;7746;50.554;7.108;2023-02-28T02:45:08;1.27;;;1.07;;
15289;SDS011;7746;50.554;7.108;2023-02-28T02:47:36;0.80;;;0.80;;
15289;SDS011;7746;50.554;7.108;2023-02-28T02:50:06;1.10;;;1.00;;
15289;SDS011;7746;50.554;7.108;2023-02-28T02:52:36;1.00;;;0.90;;
15289;SDS011;7746;50.554;7.108;2023-02-28T02:55:05;0.80;;;0.80;;
15289;SDS011;7746;50.554;7.108;2023-02-28T02:57:36;1.10;;;1.00;;
15289;SDS011;7746;50.554;7.108;2023-02-28T03:00:05;1.10;;;1.00;;
15289;SDS011;7746;50.554;7.108;2023-02-28T03:02:34;1.27;;;1.07;;
15289;SDS011;7746;50.554;7.108;2023-02-28T03:05:03;0.90;;;0.90;;
15289;SDS011;7746;50.554;7.108;2023-02-28T03:07:32;0.80;;;0.80;;
15289;SDS011;7746;50.554;7.108;2023-02-28T03:09:59;1.07;;;0.90;;
15289;SDS011;7746;50.554;7.108;2023-02-28T03:12:28;0.77;;;0.77;;
15289;SDS011;7746;50.554;7.108;2023-02-28T03:15:00;1.00;;;1.00;;
15289;SDS011;7746;50.554;7.108;2023-02-28T03:17:35;0.90;;;0.90;;
15289;SDS011;7746;50.554;7.108;2023-02-28T03:20:08;1.03;;;0.97;;
15289;SDS011;7746;50.554;7.108;2023-02-28T03:22:43;0.87;;;0.87;;
15289;SDS011;7746;50.554;7.108;2023-02-28T03:25:16;0.80;;;0.80;;
15289;SDS011;7746;50.554;7.108;2023-02-28T03:27:47;1.13;;;1.00;;
15289;SDS011;7746;50.554;7.108;2023-02-28T03:30:16;0.83;;;0.83;;
15289;SDS011;7746;50.554;7.108;2023-02-28T03:32:49;0.80;;;0.80;;
15289;SDS011;7746;50.554;7.108;2023-02-28T03:35:18;0.77;;;0.77;;
15289;SDS011;7746;50.554;7.108;2023-02-28T03:37:49;1.20;;;1.10;;
15289;SDS011;7746;50.554;7.108;2023-02-28T03:40:19;0.80;;;0.80;;
15289;SDS011;7746;50.554;7.108;2023-02-28T03:42:48;0.97;;;0.90;;
15289;SDS011;7746;50.554;7.108;2023-02-28T03:45:17;0.80;;;0.80;;
15289;SDS011;7746;50.554;7.108;2023-02-28T03:47:45;0.60;;;0.60;;
15289;SDS011;7746;50.554;7.108;2023-02-28T03:50:15;0.90;;;0.90;;
15289;SDS011;7746;50.554;7.108;2023-02-28T03:52:45;0.90;;;0.83;;
15289;SDS011;7746;50.554;7.108;2023-02-28T03:55:15;0.83;;;0.83;;
15289;SDS011;7746;50.554;7.108;2023-02-28T03:57:45;0.83;;;0.83;;
15289;SDS011;7746;50.554;7.108;2023-02-28T04:00:16;0.70;;;0.70;;
15289;SDS011;7746;50.554;7.108;2023-02-28T04:02:45;0.80;;;0.80;;
15289;SDS011;7746;50.554;7.108;2023-02-28T04:05:17;0.77;;;0.77;;
15289;SDS011;7746;50.554;7.108;2023-02-28T04:07:44;0.90;;;0.83;;
15289;SDS011;7746;50.554;7.108;2023-02-28T04:10:12;0.67;;;0.67;;
15289;SDS011;7746;50.554;7.108;2023-02-28T04:12:40;1.10;;;1.00;;
15289;SDS011;7746;50.554;7.108;2023-02-28T04:15:08;0.80;;;0.80;;
15289;SDS011;7746;50.554;7.108;2023-02-28T04:17:36;0.77;;;0.77;;
15289;SDS011;7746;50.554;7.108;2023-02-28T04:20:03;0.73;;;0.73;;
15289;SDS011;7746;50.554;7.108;2023-02-28T04:22:34;0.70;;;0.70;;
15289;SDS011;7746;50.554;7.108;2023-02-28T04:25:02;0.67;;;0.67;;
15289;SDS011;7746;50.554;7.108;2023-02-28T04:27:30;0.90;;;0.90;;
15289;SDS011;7746;50.554;7.108;2023-02-28T04:29:58;0.70;;;0.70;;
15289;SDS011;7746;50.554;7.108;2023-02-28T04:32:25;0.93;;;0.90;;
15289;SDS011;7746;50.554;7.108;2023-02-28T04:34:53;0.80;;;0.80;;
15289;SDS011;7746;50.554;7.108;2023-02-28T04:37:20;0.80;;;0.80;;
15289;SDS011;7746;50.554;7.108;2023-02-28T04:39:52;0.80;;;0.80;;
15289;SDS011;7746;50.554;7.108;2023-02-28T04:42:19;0.80;;;0.80;;
15289;SDS011;7746;50.554;7.108;2023-02-28T04:44:46;1.03;;;1.03;;
15289;SDS011;7746;50.554;7.108;2023-02-28T04:47:15;1.13;;;1.03;;
15289;SDS011;7746;50.554;7.108;2023-02-28T04:49:42;0.70;;;0.70;;
15289;SDS011;7746;50.554;7.108;2023-02-28T04:52:09;0.90;;;0.90;;
15289;SDS011;7746;50.554;7.108;2023-02-28T04:54:38;0.90;;;0.90;;
15289;SDS011;7746;50.554;7.108;2023-02-28T04:57:05;0.80;;;0.80;;
15289;SDS011;7746;50.554;7.108;2023-02-28T04:59:32;0.80;;;0.80;;
15289;SDS011;7746;50.554;7.108;2023-02-28T05:01:59;0.80;;;0.80;;
15289;SDS011;7746;50.554;7.108;2023-02-28T05:04:33;0.90;;;0.90;;
15289;SDS011;7746;50.554;7.108;2023-02-28T05:07:00;0.93;;;0.93;;
15289;SDS011;7746;50.554;7.108;2023-02-28T05:09:28;0.90;;;0.90;;
15289;SDS011;7746;50.554;7.108;2023-02-28T05:11:55;0.87;;;0.87;;
15289;SDS011;7746;50.554;7.108;2023-02-28T05:14:23;0.90;;;0.90;;
15289;SDS011;7746;50.554;7.108;2023-02-28T05:16:50;1.00;;;1.00;;
15289;SDS011;7746;50.554;7.108;2023-02-28T05:19:17;0.73;;;0.73;;
15289;SDS011;7746;50.554;7.108;2023-02-28T05:21:51;0.90;;;0.90;;
15289;SDS011;7746;50.554;7.108;2023-02-28T05:24:18;0.90;;;0.90;;
15289;SDS011;7746;50.554;7.108;2023-02-28T05:26:47;0.87;;;0.87;;
15289;SDS011;7746;50.554;7.108;2023-02-28T05:29:15;1.00;;;1.00;;
15289;SDS011;7746;50.554;7.108;2023-02-28T05:31:42;0.77;;;0.77;;
15289;SDS011;7746;50.554;7.108;2023-02-28T05:34:09;0.73;;;0.73;;
15289;SDS011;7746;50.554;7.108;2023-02-28T05:36:37;0.90;;;0.90;;
15289;SDS011;7746;50.554;7.108;2023-02-28T05:39:06;0.87;;;0.87;;
15289;SDS011;7746;50.554;7.108;2023-02-28T05:41:37;0.97;;;0.97;;
15289;SDS011;7746;50.554;7.108;2023-02-28T05:44:07;0.93;;;0.93;;
15289;SDS011;7746;50.554;7.108;2023-02-28T05:46:35;0.87;;;0.87;;
15289;SDS011;7746;50.554;7.108;2023-02-28T05:49:03;1.10;;;1.10;;
15289;SDS011;7746;50.554;7.108;2023-02-28T05:51:33;0.83;;;0.83;;
15289;SDS011;7746;50.554;7.108;2023-02-28T05:54:01;0.77;;;0.77;;
15289;SDS011;7746;50.554;7.108;2023-02-28T05:56:30;0.73;;;0.73;;
15289;SDS011;7746;50.554;7.108;2023-02-28T05:58:59;0.70;;;0.70;;
15289;SDS011;7746;50.554;7.108;2023-02-28T06:01:33;0.90;;;0.90;;
15289;SDS011;7746;50.554;7.108;2023-02-28T06:04:01;0.90;;;0.90;;
15289;SDS011;7746;50.554;7.108;2023-02-28T06:06:29;0.90;;;0.90;;
15289;SDS011;7746;50.554;7.108;2023-02-28T06:08:58;0.80;;;0.80;;
15289;SDS011;7746;50.554;7.108;2023-02-28T06:11:25;0.77;;;0.77;;
15289;SDS011;7746;50.554;7.108;2023-02-28T06:13:54;0.70;;;0.70;;
15289;SDS011;7746;50.554;7.108;2023-02-28T06:16:21;1.10;;;1.10;;
15289;SDS011;7746;50.554;7.108;2023-02-28T06:18:48;0.90;;;0.90;;
15289;SDS011;7746;50.554;7.108;2023-02-28T06:21:15;0.87;;;0.87;;
15289;SDS011;7746;50.554;7.108;2023-02-28T06:23:43;0.93;;;0.93;;
15289;SDS011;7746;50.554;7.108;2023-02-28T06:26:10;1.00;;;1.00;;
15289;SDS011;7746;50.554;7.108;2023-02-28T06:28:37;0.80;;;0.80;;
15289;SDS011;7746;50.554;7.108;2023-02-28T06:31:09;0.80;;;0.80;;
15289;SDS011;7746;50.554;7.108;2023-02-28T06:33:37;0.90;;;0.90;;
15289;SDS011;7746;50.554;7.108;2023-02-28T06:36:06;1.00;;;1.00;;
15289;SDS011;7746;50.554;7.108;2023-02-28T06:38:36;0.83;;;0.83;;
15289;SDS011;7746;50.554;7.108;2023-02-28T06:41:08;0.70;;;0.70;;
15289;SDS011;7746;50.554;7.108;2023-02-28T06:43:40;0.80;;;0.80;;
15289;SDS011;7746;50.554;7.108;2023-02-28T06:46:22;0.80;;;0.80;;
15289;SDS011;7746;50.554;7.108;2023-02-28T06:48:51;0.70;;;0.70;;
15289;SDS011;7746;50.554;7.108;2023-02-28T06:51:21;0.80;;;0.80;;
15289;SDS011;7746;50.554;7.108;2023-02-28T06:59:28;0.90;;;0.90;;
15289;SDS011;7746;50.554;7.108;2023-02-28T07:05:27;0.70;;;0.70;;
15289;SDS011;7746;50.554;7.108;2023-02-28T07:08:01;0.90;;;0.90;;
15289;SDS011;7746;50.554;7.108;2023-02-28T07:10:28;0.77;;;0.77;;
15289;SDS011;7746;50.554;7.108;2023-02-28T07:12:55;0.77;;;0.77;;
15289;SDS011;7746;50.554;7.108;2023-02-28T07:15:22;0.70;;;0.70;;
15289;SDS011;7746;50.554;7.108;2023-02-28T07:17:49;0.77;;;0.77;;
15289;SDS011;7746;50.554;7.108;2023-02-28T07:20:17;0.80;;;0.80;;
15289;SDS011;7746;50.554;7.108;2023-02-28T07:22:45;0.67;;;0.67;;
15289;SDS011;7746;50.554;7.108;2023-02-28T07:25:16;0.87;;;0.87;;
15289;SDS011;7746;50.554;7.108;2023-02-28T07:27:43;0.80;;;0.80;;
15289;SDS011;7746;50.554;7.108;2023-02-28T07:30:11;0.70;;;0.70;;
15289;SDS011;7746;50.554;7.108;2023-02-28T07:32:38;0.90;;;0.90;;
15289;SDS011;7746;50.554;7.108;2023-02-28T07:35:05;0.83;;;0.83;;
15289;SDS011;7746;50.554;7.108;2023-02-28T07:37:32;0.60;;;0.60;;
15289;SDS011;7746;50.554;7.108;2023-02-28T07:40:03;0.80;;;0.80;;
15289;SDS011;7746;50.554;7.108;2023-02-28T07:42:33;0.80;;;0.80;;
15289;SDS011;7746;50.554;7.108;2023-02-28T07:45:00;1.73;;;1.10;;
15289;SDS011;7746;50.554;7.108;2023-02-28T07:47:31;0.83;;;0.83;;
15289;SDS011;7746;50.554;7.108;2023-02-28T07:49:59;1.53;;;1.07;;
15289;SDS011;7746;50.554;7.108;2023-02-28T07:52:40;1.63;;;1.03;;
15289;SDS011;7746;50.554;7.108;2023-02-28T07:55:13;0.70;;;0.70;;
15289;SDS011;7746;50.554;7.108;2023-02-28T07:57:49;1.50;;;1.00;;
15289;SDS011;7746;50.554;7.108;2023-02-28T08:00:18;1.13;;;0.90;;
15289;SDS011;7746;50.554;7.108;2023-02-28T08:02:47;0.80;;;0.80;;
15289;SDS011;7746;50.554;7.108;2023-02-28T08:05:17;1.00;;;0.90;;
15289;SDS011;7746;50.554;7.108;2023-02-28T08:07:50;0.73;;;0.73;;
15289;SDS011;7746;50.554;7.108;2023-02-28T08:10:21;0.90;;;0.80;;
15289;SDS011;7746;50.554;7.108;2023-02-28T08:12:51;0.90;;;0.80;;
15289;SDS011;7746;50.554;7.108;2023-02-28T08:15:19;1.13;;;0.77;;
15289;SDS011;7746;50.554;7.108;2023-02-28T08:17:53;1.17;;;0.87;;
15289;SDS011;7746;50.554;7.108;2023-02-28T08:20:23;1.57;;;0.97;;
15289;SDS011;7746;50.554;7.108;2023-02-28T08:22:50;0.93;;;0.87;;
15289;SDS011;7746;50.554;7.108;2023-02-28T08:25:18;1.43;;;1.03;;
15289;SDS011;7746;50.554;7.108;2023-02-28T08:27:52;1.10;;;0.83;;
15289;SDS011;7746;50.554;7.108;2023-02-28T08:30:23;1.17;;;1.00;;
15289;SDS011;7746;50.554;7.108;2023-02-28T08:32:51;0.93;;;0.87;;
15289;SDS011;7746;50.554;7.108;2023-02-28T08:35:32;0.97;;;0.80;;
15289;SDS011;7746;50.554;7.108;2023-02-28T08:38:11;1.70;;;1.07;;
15289;SDS011;7746;50.554;7.108;2023-02-28T08:40:45;1.37;;;0.87;;
15289;SDS011;7746;50.554;7.108;2023-02-28T08:43:20;0.73;;;0.73;;
15289;SDS011;7746;50.554;7.108;2023-02-28T08:45:51;1.70;;;1.00;;
15289;SDS011;7746;50.554;7.108;2023-02-28T08:48:18;1.50;;;0.90;;
15289;SDS011;7746;50.554;7.108;2023-02-28T08:50:54;1.30;;;0.97;;
15289;SDS011;7746;50.554;7.108;2023-02-28T08:53:25;2.47;;;1.13;;
15289;SDS011;7746;50.554;7.108;2023-02-28T08:55:57;0.80;;;0.80;;
15289;SDS011;7746;50.554;7.108;2023-02-28T08:58:28;1.00;;;0.80;;
15289;SDS011;7746;50.554;7.108;2023-02-28T09:00:56;2.00;;;1.10;;
15289;SDS011;7746;50.554;7.108;2023-02-28T09:03:25;9.23;;;2.33;;
15289;SDS011;7746;50.554;7.108;2023-02-28T09:05:57;2.03;;;1.00;;
15289;SDS011;7746;50.554;7.108;2023-02-28T09:08:26;2.63;;;1.20;;
15289;SDS011;7746;50.554;7.108;2023-02-28T09:10:58;3.23;;;1.23;;
15289;SDS011;7746;50.554;7.108;2023-02-28T09:13:36;2.20;;;1.20;;
15289;SDS011;7746;50.554;7.108;2023-02-28T09:16:08;2.93;;;1.37;;
15289;SDS011;7746;50.554;7.108;2023-02-28T09:18:35;1.50;;;1.40;;
15289;SDS011;7746;50.554;7.108;2023-02-28T09:21:06;4.87;;;1.80;;
15289;SDS011;7746;50.554;7.108;2023-02-28T09:23:40;3.90;;;1.70;;
15289;SDS011;7746;50.554;7.108;2023-02-28T09:26:12;1.47;;;1.30;;
15289;SDS011;7746;50.554;7.108;2023-02-28T09:28:49;2.00;;;1.20;;
15289;SDS011;7746;50.554;7.108;2023-02-28T09:31:25;1.27;;;1.00;;
15289;SDS011;7746;50.554;7.108;2023-02-28T09:33:59;3.20;;;1.63;;
15289;SDS011;7746;50.554;7.108;2023-02-28T09:36:28;1.10;;;0.93;;
15289;SDS011;7746;50.554;7.108;2023-02-28T09:39:01;1.77;;;1.13;;
15289;SDS011;7746;50.554;7.108;2023-02-28T09:41:36;1.00;;;0.90;;
15289;SDS011;7746;50.554;7.108;2023-02-28T09:44:17;2.57;;;1.10;;
15289;SDS011;7746;50.554;7.108;2023-02-28T09:46:50;2.13;;;1.03;;
15289;SDS011;7746;50.554;7.108;2023-02-28T09:49:24;3.03;;;1.30;;
15289;SDS011;7746;50.554;7.108;2023-02-28T09:51:56;2.40;;;1.33;;
15289;SDS011;7746;50.554;7.108;2023-02-28T09:54:35;1.70;;;1.27;;
15289;SDS011;7746;50.554;7.108;2023-02-28T09:57:09;1.63;;;1.53;;
15289;SDS011;7746;50.554;7.108;2023-02-28T09:59:45;4.20;;;1.80;;
15289;SDS011;7746;50.554;7.108;2023-02-28T10:02:31;3.30;;;1.60;;
15289;SDS011;7746;50.554;7.108;2023-02-28T10:05:04;1.90;;;1.27;;
15289;SDS011;7746;50.554;7.108;2023-02-28T10:07:46;6.10;;;4.87;;
15289;SDS011;7746;50.554;7.108;2023-02-28T10:10:21;5.53;;;2.23;;
15289;SDS011;7746;50.554;7.108;2023-02-28T10:12:51;4.23;;;2.30;;
15289;SDS011;7746;50.554;7.108;2023-02-28T10:15:25;1.37;;;1.10;;
15289;SDS011;7746;50.554;7.108;2023-02-28T10:18:01;1.67;;;1.03;;
15289;SDS011;7746;50.554;7.108;2023-02-28T10:20:32;2.37;;;1.63;;
15289;SDS011;7746;50.554;7.108;2023-02-28T10:23:03;3.93;;;2.00;;
15289;SDS011;7746;50.554;7.108;2023-02-28T10:25:38;2.83;;;1.60;;
15289;SDS011;7746;50.554;7.108;2023-02-28T10:28:11;6.23;;;4.70;;
15289;SDS011;7746;50.554;7.108;2023-02-28T10:30:41;5.00;;;3.97;;
15289;SDS011;7746;50.554;7.108;2023-02-28T10:33:14;7.80;;;4.73;;
15289;SDS011;7746;50.554;7.108;2023-02-28T10:35:44;9.80;;;5.70;;
15289;SDS011;7746;50.554;7.108;2023-02-28T10:38:16;9.60;;;5.97;;
15289;SDS011;7746;50.554;7.108;2023-02-28T10:40:49;8.30;;;5.93;;
15289;SDS011;7746;50.554;7.108;2023-02-28T10:43:18;26.43;;;8.93;;
15289;SDS011;7746;50.554;7.108;2023-02-28T10:45:54;11.57;;;7.37;;
15289;SDS011;7746;50.554;7.108;2023-02-28T10:48:30;7.80;;;4.63;;
15289;SDS011;7746;50.554;7.108;2023-02-28T10:50:57;7.87;;;3.50;;
15289;SDS011;7746;50.554;7.108;2023-02-28T10:53:28;2.80;;;1.97;;
15289;SDS011;7746;50.554;7.108;2023-02-28T10:55:57;10.10;;;5.53;;
15289;SDS011;7746;50.554;7.108;2023-02-28T10:58:26;5.00;;;2.47;;
15289;SDS011;7746;50.554;7.108;2023-02-28T11:00:55;5.97;;;2.73;;
15289;SDS011;7746;50.554;7.108;2023-02-28T11:03:24;4.80;;;2.43;;
15289;SDS011;7746;50.554;7.108;2023-02-28T11:05:51;4.13;;;2.40;;
15289;SDS011;7746;50.554;7.108;2023-02-28T11:08:18;5.80;;;2.60;;
15289;SDS011;7746;50.554;7.108;2023-02-28T11:10:46;1.37;;;1.20;;
15289;SDS011;7746;50.554;7.108;2023-02-28T11:13:16;2.67;;;1.57;;
15289;SDS011;7746;50.554;7.108;2023-02-28T11:15:49;2.17;;;1.50;;
15289;SDS011;7746;50.554;7.108;2023-02-28T11:18:23;3.50;;;1.60;;
15289;SDS011;7746;50.554;7.108;2023-02-28T11:20:51;2.97;;;1.50;;
15289;SDS011;7746;50.554;7.108;2023-02-28T11:23:19;4.60;;;2.70;;
15289;SDS011;7746;50.554;7.108;2023-02-28T11:25:47;5.13;;;2.37;;
15289;SDS011;7746;50.554;7.108;2023-02-28T11:28:26;2.17;;;1.33;;
15289;SDS011;7746;50.554;7.108;2023-02-28T11:31:00;2.40;;;1.80;;
15289;SDS011;7746;50.554;7.108;2023-02-28T11:33:30;4.50;;;2.30;;
15289;SDS011;7746;50.554;7.108;2023-02-28T11:35:58;6.53;;;3.30;;
15289;SDS011;7746;50.554;7.108;2023-02-28T11:38:26;3.77;;;2.33;;
15289;SDS011;7746;50.554;7.108;2023-02-28T11:41:01;4.97;;;2.40;;
15289;SDS011;7746;50.554;7.108;2023-02-28T11:43:30;3.10;;;1.77;;
15289;SDS011;7746;50.554;7.108;2023-02-28T11:46:05;5.43;;;2.43;;
15289;SDS011;7746;50.554;7.108;2023-02-28T11:48:37;5.07;;;2.43;;
15289;SDS011;7746;50.554;7.108;2023-02-28T11:51:09;5.57;;;2.57;;
15289;SDS011;7746;50.554;7.108;2023-02-28T11:53:41;6.20;;;2.87;;
15289;SDS011;7746;50.554;7.108;2023-02-28T11:56:12;2.77;;;2.00;;
15289;SDS011;7746;50.554;7.108;2023-02-28T11:58:44;4.53;;;2.23;;
15289;SDS011;7746;50.554;7.108;2023-02-28T12:01:27;7.70;;;4.77;;
15289;SDS011;7746;50.554;7.108;2023-02-28T12:04:01;11.23;;;6.10;;
15289;SDS011;7746;50.554;7.108;2023-02-28T12:06:31;8.20;;;6.03;;
15289;SDS011;7746;50.554;7.108;2023-02-28T12:09:02;7.53;;;4.50;;
15289;SDS011;7746;50.554;7.108;2023-02-28T12:11:39;10.10;;;5.20;;
15289;SDS011;7746;50.554;7.108;2023-02-28T12:14:16;5.70;;;3.57;;
15289;SDS011;7746;50.554;7.108;2023-02-28T12:16:48;3.43;;;3.13;;
15289;SDS011;7746;50.554;7.108;2023-02-28T12:19:21;6.60;;;3.83;;
15289;SDS011;7746;50.554;7.108;2023-02-28T12:21:56;8.97;;;6.00;;
15289;SDS011;7746;50.554;7.108;2023-02-28T12:24:39;9.43;;;6.50;;
15289;SDS011;7746;50.554;7.108;2023-02-28T12:27:08;7.47;;;5.20;;
15289;SDS011;7746;50.554;7.108;2023-02-28T12:29:39;6.30;;;5.70;;
15289;SDS011;7746;50.554;7.108;2023-02-28T12:32:09;6.37;;;3.60;;
15289;SDS011;7746;50.554;7.108;2023-02-28T12:34:41;9.50;;;5.90;;
15289;SDS011;7746;50.554;7.108;2023-02-28T12:37:10;9.43;;;5.33;;
15289;SDS011;7746;50.554;7.108;2023-02-28T12:39:40;13.47;;;6.97;;
15289;SDS011;7746;50.554;7.108;2023-02-28T12:42:10;11.57;;;6.07;;
15289;SDS011;7746;50.554;7.108;2023-02-28T12:44:40;7.90;;;4.63;;
15289;SDS011;7746;50.554;7.108;2023-02-28T12:47:11;10.30;;;5.53;;
15289;SDS011;7746;50.554;7.108;2023-02-28T12:49:42;6.03;;;4.93;;
15289;SDS011;7746;50.554;7.108;2023-02-28T12:52:12;7.43;;;5.03;;
15289;SDS011;7746;50.554;7.108;2023-02-28T12:54:42;4.13;;;3.70;;
15289;SDS011;7746;50.554;7.108;2023-02-28T12:57:12;8.70;;;6.07;;
15289;SDS011;7746;50.554;7.108;2023-02-28T12:59:43;11.60;;;6.73;;
15289;SDS011;7746;50.554;7.108;2023-02-28T13:02:27;13.53;;;7.83;;
15289;SDS011;7746;50.554;7.108;2023-02-28T13:05:04;13.33;;;6.40;;
15289;SDS011;7746;50.554;7.108;2023-02-28T13:07:52;7.60;;;4.47;;
15289;SDS011;7746;50.554;7.108;2023-02-28T13:10:25;6.77;;;2.67;;
15289;SDS011;7746;50.554;7.108;2023-02-28T13:13:04;5.00;;;2.30;;
15289;SDS011;7746;50.554;7.108;2023-02-28T13:15:31;2.73;;;1.20;;
15289;SDS011;7746;50.554;7.108;2023-02-28T13:18:03;1.43;;;1.13;;
15289;SDS011;7746;50.554;7.108;2023-02-28T13:20:33;3.27;;;1.30;;
15289;SDS011;7746;50.554;7.108;2023-02-28T13:23:00;2.33;;;1.10;;
15289;SDS011;7746;50.554;7.108;2023-02-28T13:31:04;2.03;;;1.40;;
15289;SDS011;7746;50.554;7.108;2023-02-28T13:33:32;4.27;;;1.63;;
15289;SDS011;7746;50.554;7.108;2023-02-28T13:36:05;1.33;;;1.03;;
15289;SDS011;7746;50.554;7.108;2023-02-28T13:38:34;3.17;;;1.33;;
15289;SDS011;7746;50.554;7.108;2023-02-28T13:43:58;2.50;;;1.60;;
15289;SDS011;7746;50.554;7.108;2023-02-28T13:46:26;2.20;;;1.20;;
15289;SDS011;7746;50.554;7.108;2023-02-28T13:57:30;4.53;;;1.93;;
15289;SDS011;7746;50.554;7.108;2023-02-28T14:00:05;5.13;;;2.03;;
15289;SDS011;7746;50.554;7.108;2023-02-28T14:02:45;1.60;;;1.13;;
15289;SDS011;7746;50.554;7.108;2023-02-28T14:05:16;3.00;;;1.33;;
15289;SDS011;7746;50.554;7.108;2023-02-28T14:07:45;2.00;;;0.93;;
15289;SDS011;7746;50.554;7.108;2023-02-28T14:10:22;2.13;;;1.17;;
15289;SDS011;7746;50.554;7.108;2023-02-28T14:15:43;3.93;;;1.47;;
15289;SDS011;7746;50.554;7.108;2023-02-28T14:18:14;2.90;;;1.20;;
15289;SDS011;7746;50.554;7.108;2023-02-28T14:20:42;1.37;;;0.77;;
15289;SDS011;7746;50.554;7.108;2023-02-28T14:23:12;2.53;;;1.10;;
15289;SDS011;7746;50.554;7.108;2023-02-28T14:25:43;2.20;;;1.00;;
15289;SDS011;7746;50.554;7.108;2023-02-28T14:28:17;2.17;;;1.20;;
15289;SDS011;7746;50.554;7.108;2023-02-28T14:30:55;1.00;;;0.90;;
15289;SDS011;7746;50.554;7.108;2023-02-28T14:33:31;1.97;;;1.00;;
15289;SDS011;7746;50.554;7.108;2023-02-28T14:36:04;2.43;;;1.03;;
15289;SDS011;7746;50.554;7.108;2023-02-28T14:38:36;2.37;;;1.00;;
15289;SDS011;7746;50.554;7.108;2023-02-28T14:41:12;3.73;;;1.53;;
15289;SDS011;7746;50.554;7.108;2023-02-28T14:43:47;2.87;;;1.13;;
15289;SDS011;7746;50.554;7.108;2023-02-28T14:46:16;2.27;;;1.13;;
15289;SDS011;7746;50.554;7.108;2023-02-28T14:48:45;2.33;;;1.20;;
15289;SDS011;7746;50.554;7.108;2023-02-28T14:51:13;3.53;;;1.60;;
15289;SDS011;7746;50.554;7.108;2023-02-28T14:53:47;3.80;;;1.47;;
15289;SDS011;7746;50.554;7.108;2023-02-28T14:56:22;2.07;;;1.07;;
15289;SDS011;7746;50.554;7.108;2023-02-28T14:58:51;1.57;;;1.00;;
15289;SDS011;7746;50.554;7.108;2023-02-28T15:01:20;2.20;;;1.23;;
15289;SDS011;7746;50.554;7.108;2023-02-28T15:03:48;4.47;;;1.37;;
15289;SDS011;7746;50.554;7.108;2023-02-28T15:06:23;1.77;;;1.13;;
15289;SDS011;7746;50.554;7.108;2023-02-28T15:11:33;2.30;;;1.07;;
15289;SDS011;7746;50.554;7.108;2023-02-28T15:14:01;3.23;;;1.40;;
15289;SDS011;7746;50.554;7.108;2023-02-28T15:16:31;3.47;;;1.57;;
15289;SDS011;7746;50.554;7.108;2023-02-28T15:18:59;2.00;;;1.23;;
15289;SDS011;7746;50.554;7.108;2023-02-28T15:21:27;1.87;;;1.10;;
15289;SDS011;7746;50.554;7.108;2023-02-28T15:23:56;1.67;;;1.00;;
15289;SDS011;7746;50.554;7.108;2023-02-28T15:26:26;3.87;;;1.60;;
15289;SDS011;7746;50.554;7.108;2023-02-28T15:28:55;1.70;;;1.00;;
15289;SDS011;7746;50.554;7.108;2023-02-28T15:31:26;2.20;;;1.57;;
15289;SDS011;7746;50.554;7.108;2023-02-28T15:33:55;1.97;;;1.40;;
15289;SDS011;7746;50.554;7.108;2023-02-28T15:36:24;3.83;;;1.43;;
15289;SDS011;7746;50.554;7.108;2023-02-28T15:38:52;3.10;;;1.20;;
15289;SDS011;7746;50.554;7.108;2023-02-28T15:41:27;1.50;;;0.90;;
15289;SDS011;7746;50.554;7.108;2023-02-28T15:46:40;2.27;;;0.87;;
15289;SDS011;7746;50.554;7.108;2023-02-28T15:49:13;3.23;;;1.03;;
15289;SDS011;7746;50.554;7.108;2023-02-28T15:51:44;1.03;;;0.80;;
15289;SDS011;7746;50.554;7.108;2023-02-28T15:54:12;2.63;;;1.10;;
15289;SDS011;7746;50.554;7.108;2023-02-28T15:56:43;3.87;;;1.23;;